Time;durP1;ratioP1;P1;durP2;ratioP2;P2;SDS_P1;SDS_P2;PMS_P1;PMS_P2;Temp;Humidity;BMP_temperature;BMP_pressure;BME280_temperature;BME280_humidity;BME280_pressure;Samples;Min_cycle;Max_cycle;Signal;HPM_P1;HPM_P2
2021/08/22 00:01:14;;;;;;;18.17;14.85;;;;;;;25.26;41.92;100868.88;1698484;83;21141;-42
2021/08/22 00:03:40;;;;;;;19.45;14.65;;;;;;;25.27;41.99;100871.33;1694824;84;21019;-41
2021/08/22 00:06:07;;;;;;;19.50;14.98;;;;;;;25.29;42.02;100863.42;1696210;83;21308;-42
2021/08/22 00:08:38;;;;;;;19.40;15.08;;;;;;;25.31;42.08;100873.65;1698224;83;21047;-42
2021/08/22 00:11:04;;;;;;;19.00;15.08;;;;;;;25.34;42.14;100867.95;1685098;83;21049;-42
2021/08/22 00:13:31;;;;;;;18.70;14.87;;;;;;;25.34;42.21;100864.59;1707514;82;20952;-43
2021/08/22 00:15:57;;;;;;;17.95;13.78;;;;;;;25.36;42.28;100874.82;1702867;83;21076;-42
2021/08/22 00:18:23;;;;;;;18.02;13.90;;;;;;;25.37;42.31;100866.70;1710437;82;21627;-41
2021/08/22 00:20:49;;;;;;;18.55;14.60;;;;;;;25.39;42.37;100864.94;1706751;83;21131;-42
2021/08/22 00:23:15;;;;;;;20.30;15.15;;;;;;;25.41;42.45;100870.98;1706464;82;21059;-41
2021/08/22 00:25:42;;;;;;;18.32;14.07;;;;;;;25.41;42.48;100866.23;1669091;83;21066;-43
2021/08/22 00:28:08;;;;;;;18.17;14.28;;;;;;;25.42;42.57;100860.87;1717669;82;20939;-41
2021/08/22 00:30:34;;;;;;;19.07;14.87;;;;;;;25.44;42.62;100872.49;1716739;81;21602;-41
2021/08/22 00:33:00;;;;;;;20.12;14.78;;;;;;;25.44;42.66;100868.31;1715697;81;21557;-43
2021/08/22 00:35:26;;;;;;;17.52;14.43;;;;;;;25.46;42.69;100861.02;1716552;82;21064;-43
2021/08/22 00:37:53;;;;;;;17.52;13.68;;;;;;;25.47;42.75;100865.40;1715429;82;21559;-43
2021/08/22 00:40:20;;;;;;;19.75;13.78;;;;;;;25.48;42.81;100863.67;1713602;82;21138;-43
2021/08/22 00:42:49;;;;;;;17.50;13.95;;;;;;;25.48;42.89;100862.27;1718796;82;21166;-41
2021/08/22 00:45:15;;;;;;;16.93;13.25;;;;;;;25.48;42.93;100862.27;1678982;84;21027;-41
2021/08/22 00:47:43;;;;;;;17.23;13.65;;;;;;;25.50;42.99;100858.34;1705679;83;21039;-41
2021/08/22 00:50:13;;;;;;;18.77;14.15;;;;;;;25.51;43.04;100857.97;1709588;83;21027;-42
2021/08/22 00:52:40;;;;;;;19.00;14.05;;;;;;;25.52;43.07;100861.56;1701887;83;21111;-42
2021/08/22 00:55:07;;;;;;;17.07;13.20;;;;;;;25.53;43.12;100862.66;1699657;83;21432;-42
2021/08/22 00:57:34;;;;;;;18.52;12.82;;;;;;;25.54;43.16;100866.25;1708982;83;21047;-43
2021/08/22 01:00:13;;;;;;;16.87;13.32;;;;;;;25.54;43.20;100867.65;1706474;83;21028;-42
2021/08/22 01:03:08;;;;;;;17.50;13.28;;;;;;;25.55;43.24;100865.06;1707503;83;21017;-44
2021/08/22 01:05:57;;;;;;;16.73;13.43;;;;;;;25.55;43.30;100867.85;1710929;82;20997;-42
2021/08/22 01:08:34;;;;;;;18.80;13.65;;;;;;;25.56;43.33;100878.66;1689740;83;21082;-42
2021/08/22 01:11:16;;;;;;;17.25;12.53;;;;;;;25.55;43.37;100867.85;1701253;83;21613;-42
2021/08/22 01:13:55;;;;;;;17.73;13.35;;;;;;;25.55;43.42;100870.64;1704825;82;21091;-43
2021/08/22 01:16:22;;;;;;;17.00;13.28;;;;;;;25.56;43.45;100875.06;1709519;83;21103;-45
2021/08/22 01:18:48;;;;;;;18.07;13.95;;;;;;;25.55;43.50;100877.03;1714052;83;21466;-43
2021/08/22 01:21:19;;;;;;;19.32;13.62;;;;;;;25.55;43.58;100873.42;1702280;83;23261;-42
2021/08/22 01:23:53;;;;;;;17.65;12.88;;;;;;;25.56;43.61;100867.52;1706259;83;21009;-43
2021/08/22 01:26:21;;;;;;;17.48;13.45;;;;;;;25.57;43.66;100871.12;1707607;82;20952;-45
2021/08/22 01:28:47;;;;;;;15.98;12.98;;;;;;;25.57;43.67;100866.94;1720879;82;21565;-43
2021/08/22 01:31:18;;;;;;;15.15;12.43;;;;;;;25.57;43.73;100868.33;1737302;82;20912;-42
2021/08/22 01:33:45;;;;;;;16.48;12.60;;;;;;;25.58;43.76;100874.95;1739386;82;21474;-42
2021/08/22 01:36:11;;;;;;;15.55;12.45;;;;;;;25.59;43.80;100870.20;1740365;80;21035;-43
2021/08/22 01:38:37;;;;;;;16.32;12.68;;;;;;;25.58;43.85;100871.36;1740718;80;21463;-42
2021/08/22 01:41:04;;;;;;;15.23;12.18;;;;;;;25.60;43.91;100874.59;1740352;80;21894;-44
2021/08/22 01:43:31;;;;;;;16.70;12.95;;;;;;;25.60;43.96;100870.41;1741451;80;21039;-42
2021/08/22 01:45:58;;;;;;;16.87;13.18;;;;;;;25.60;43.98;100874.01;1742286;80;21257;-42
2021/08/22 01:48:24;;;;;;;16.70;12.93;;;;;;;25.61;44.01;100878.42;1742900;80;21030;-44
2021/08/22 01:50:59;;;;;;;16.48;12.90;;;;;;;25.61;44.06;100877.03;1738742;80;21006;-43
2021/08/22 01:53:26;;;;;;;17.65;13.18;;;;;;;25.62;44.10;100883.42;1735089;80;21574;-42
2021/08/22 01:55:53;;;;;;;16.93;12.43;;;;;;;25.62;44.15;100880.06;1739710;82;21140;-42
2021/08/22 01:58:21;;;;;;;14.75;12.07;;;;;;;25.61;44.18;100874.25;1737873;81;21243;-42
2021/08/22 02:00:49;;;;;;;15.90;12.40;;;;;;;25.62;44.23;100878.66;1738445;80;20992;-44
2021/08/22 02:03:26;;;;;;;16.25;13.10;;;;;;;25.63;44.25;100876.70;1737612;81;21415;-41
2021/08/22 02:05:57;;;;;;;15.38;12.45;;;;;;;25.63;44.28;100884.45;1740106;81;21553;-42
2021/08/22 02:08:25;;;;;;;15.28;11.97;;;;;;;25.63;44.30;100882.27;1734919;81;21082;-45
2021/08/22 02:11:06;;;;;;;17.20;12.10;;;;;;;25.64;44.35;100876.91;1743992;80;21305;-42
2021/08/22 02:13:36;;;;;;;17.85;12.82;;;;;;;25.64;44.37;100886.66;1733923;81;21074;-41
2021/08/22 02:16:03;;;;;;;13.57;11.37;;;;;;;25.64;44.41;100888.86;1739002;81;21559;-42
2021/08/22 02:18:29;;;;;;;15.58;12.03;;;;;;;25.63;44.43;100883.05;1745219;80;20956;-41
2021/08/22 02:20:56;;;;;;;14.85;11.88;;;;;;;25.64;44.47;100889.44;1739216;80;21666;-43
2021/08/22 02:23:22;;;;;;;15.55;11.97;;;;;;;25.64;44.50;100890.84;1745451;82;21243;-43
2021/08/22 02:25:48;;;;;;;14.53;12.15;;;;;;;25.65;44.53;100889.68;1731720;80;20989;-42
2021/08/22 02:28:14;;;;;;;15.10;12.03;;;;;;;25.64;44.56;100888.86;1736276;81;21110;-43
2021/08/22 02:30:40;;;;;;;15.32;11.57;;;;;;;25.65;44.59;100889.68;1730804;80;21063;-42
2021/08/22 02:33:07;;;;;;;16.02;12.13;;;;;;;25.65;44.61;100903.03;1729732;80;21036;-43
2021/08/22 02:35:33;;;;;;;15.60;11.80;;;;;;;25.65;44.66;100894.67;1735078;80;21300;-43
2021/08/22 02:37:59;;;;;;;15.50;12.35;;;;;;;25.65;44.68;100898.86;1735396;80;20937;-42
2021/08/22 02:40:25;;;;;;;14.05;11.50;;;;;;;25.66;44.72;100891.31;1726605;80;21166;-42
2021/08/22 02:42:52;;;;;;;15.38;11.43;;;;;;;25.66;44.74;100894.09;1729192;80;20995;-44
2021/08/22 02:45:18;;;;;;;14.38;11.43;;;;;;;25.66;44.78;100897.70;1726242;80;21004;-41
2021/08/22 02:47:44;;;;;;;13.85;11.68;;;;;;;25.67;44.80;100890.16;1733043;80;21118;-42
2021/08/22 02:50:10;;;;;;;15.15;11.95;;;;;;;25.67;44.83;100898.52;1729561;80;20896;-43
2021/08/22 02:52:36;;;;;;;14.87;11.88;;;;;;;25.67;44.86;100895.73;1730896;80;21524;-42
2021/08/22 02:55:03;;;;;;;14.63;11.35;;;;;;;25.67;44.91;100885.98;1733095;80;20908;-41
2021/08/22 02:57:30;;;;;;;14.60;11.63;;;;;;;25.67;44.91;100888.77;1735625;80;20944;-41
2021/08/22 02:59:56;;;;;;;16.23;11.20;;;;;;;25.68;44.88;100890.36;1734949;82;21390;-41
2021/08/22 03:02:22;;;;;;;14.83;11.65;;;;;;;25.68;44.90;100895.94;1731401;80;21054;-45
2021/08/22 03:04:48;;;;;;;13.58;11.33;;;;;;;25.67;44.93;100890.97;1732023;80;20916;-41
2021/08/22 03:07:14;;;;;;;12.70;10.45;;;;;;;25.68;44.97;100887.58;1730303;80;21040;-42
2021/08/22 03:09:40;;;;;;;13.93;10.58;;;;;;;25.68;45.01;100888.97;1724550;81;21044;-42
2021/08/22 03:12:07;;;;;;;14.43;11.15;;;;;;;25.68;45.05;100887.00;1735510;80;21097;-42
2021/08/22 03:14:33;;;;;;;14.33;11.20;;;;;;;25.68;45.11;100886.19;1723838;81;21063;-43
2021/08/22 03:16:59;;;;;;;14.15;11.18;;;;;;;25.69;45.13;100893.39;1727008;81;20872;-41
2021/08/22 03:19:25;;;;;;;14.35;11.00;;;;;;;25.68;45.17;100895.94;1727901;81;20998;-42
2021/08/22 03:21:51;;;;;;;14.60;10.68;;;;;;;25.68;45.19;100896.75;1730638;82;21584;-42
2021/08/22 03:24:17;;;;;;;13.88;10.78;;;;;;;25.68;45.23;100895.94;1734506;80;23342;-41
2021/08/22 03:26:43;;;;;;;14.35;11.43;;;;;;;25.68;45.26;100898.14;1740646;80;20931;-41
2021/08/22 03:29:09;;;;;;;13.18;10.80;;;;;;;25.69;45.29;100901.75;1739340;81;21023;-42
2021/08/22 03:31:35;;;;;;;12.03;9.83;;;;;;;25.68;45.32;100903.72;1738619;80;20823;-43
2021/08/22 03:34:01;;;;;;;14.35;11.35;;;;;;;25.68;45.36;100899.54;1744070;80;21646;-42
2021/08/22 03:36:28;;;;;;;14.05;10.72;;;;;;;25.68;45.38;100905.11;1739703;80;23212;-43
2021/08/22 03:38:54;;;;;;;12.05;10.20;;;;;;;25.69;45.42;100908.14;1745235;80;21046;-41
2021/08/22 03:41:20;;;;;;;14.55;11.60;;;;;;;25.68;45.43;100903.72;1742785;80;20958;-42
2021/08/22 03:43:46;;;;;;;12.68;10.10;;;;;;;25.68;45.46;100906.51;1749189;80;21046;-41
2021/08/22 03:46:12;;;;;;;12.73;10.05;;;;;;;25.68;45.49;100905.11;1738891;81;21772;-41
2021/08/22 03:48:38;;;;;;;13.15;10.15;;;;;;;25.69;45.51;100908.14;1668273;83;23338;-40
2021/08/22 03:51:04;;;;;;;12.23;10.15;;;;;;;25.69;45.56;100901.75;1737893;81;20987;-42
2021/08/22 03:53:30;;;;;;;14.00;10.82;;;;;;;25.69;45.57;100911.50;1738986;80;20863;-43
2021/08/22 03:55:56;;;;;;;12.25;9.98;;;;;;;25.69;45.59;100911.50;1738902;81;21028;-41
2021/08/22 03:58:22;;;;;;;13.58;10.40;;;;;;;25.69;45.62;100913.71;1741347;80;20968;-42
2021/08/22 04:00:48;;;;;;;12.07;9.63;;;;;;;25.69;45.63;100914.29;1742168;81;22019;-42
2021/08/22 04:03:14;;;;;;;12.00;9.58;;;;;;;25.68;45.67;100914.87;1710800;82;20904;-41
2021/08/22 04:05:40;;;;;;;11.70;10.30;;;;;;;25.69;45.69;100908.72;1743986;80;21067;-43
2021/08/22 04:08:07;;;;;;;12.95;10.70;;;;;;;25.70;45.69;100911.73;1739062;80;21027;-42
2021/08/22 04:10:33;;;;;;;12.00;9.90;;;;;;;25.69;45.71;100910.11;1739447;80;21087;-43
2021/08/22 04:12:59;;;;;;;12.98;10.78;;;;;;;25.69;45.75;100916.50;1742472;81;21091;-44
2021/08/22 04:15:25;;;;;;;13.88;11.05;;;;;;;25.69;45.76;100915.69;1737847;80;21562;-42
2021/08/22 04:17:51;;;;;;;12.85;10.15;;;;;;;25.69;45.78;100919.86;1707229;82;21084;-41
2021/08/22 04:20:18;;;;;;;14.45;9.98;;;;;;;25.69;45.78;100916.50;1700780;83;21036;-43
2021/08/22 04:22:44;;;;;;;14.30;10.65;;;;;;;25.69;45.81;100919.86;1745089;80;21055;-44
2021/08/22 04:25:11;;;;;;;13.28;10.18;;;;;;;25.69;45.84;100922.08;1744242;80;21920;-43
2021/08/22 04:27:40;;;;;;;13.30;10.82;;;;;;;25.69;45.85;100922.65;1729114;80;20960;-42
2021/08/22 04:30:09;;;;;;;11.18;9.50;;;;;;;25.69;45.84;100923.47;1735266;80;21015;-42
2021/08/22 04:32:36;;;;;;;11.40;9.75;;;;;;;25.71;45.84;100932.88;1726787;81;21053;-42
2021/08/22 04:35:03;;;;;;;12.33;10.25;;;;;;;25.70;45.89;100929.85;1707489;83;21032;-42
2021/08/22 04:37:29;;;;;;;12.37;9.78;;;;;;;25.72;45.91;100930.30;1732051;80;21134;-42
2021/08/22 04:39:58;;;;;;;10.90;9.05;;;;;;;25.71;45.90;100925.91;1729044;80;21083;-42
2021/08/22 04:42:23;;;;;;;12.88;10.63;;;;;;;25.70;45.92;100930.67;1691468;82;21116;-42
2021/08/22 04:44:49;;;;;;;13.48;10.53;;;;;;;25.70;45.93;100929.85;1728609;80;21427;-44
2021/08/22 04:47:16;;;;;;;12.40;10.38;;;;;;;25.71;45.93;100930.09;1727329;80;21048;-43
2021/08/22 04:49:42;;;;;;;11.83;9.50;;;;;;;25.71;45.95;100932.88;1735540;80;21220;-42
2021/08/22 04:52:08;;;;;;;12.15;9.63;;;;;;;25.71;45.94;100937.06;1726019;81;20916;-43
2021/08/22 04:54:34;;;;;;;13.28;10.03;;;;;;;25.72;45.98;100944.23;1727785;80;21059;-42
2021/08/22 04:57:00;;;;;;;13.15;10.13;;;;;;;25.71;45.97;100941.23;1735642;81;20994;-45
2021/08/22 04:59:26;;;;;;;12.58;9.95;;;;;;;25.72;45.98;100937.27;1733121;80;20984;-42
2021/08/22 05:01:52;;;;;;;12.10;10.15;;;;;;;25.72;45.98;100948.41;1729806;80;21638;-42
2021/08/22 05:04:18;;;;;;;11.93;9.23;;;;;;;25.71;46.00;100944.03;1731566;82;20968;-42
2021/08/22 05:06:44;;;;;;;11.83;9.35;;;;;;;25.72;46.00;100942.27;1730583;81;20979;-42
2021/08/22 05:09:10;;;;;;;12.90;9.50;;;;;;;25.72;46.04;100946.44;1724973;81;21075;-44
2021/08/22 05:11:36;;;;;;;11.53;10.05;;;;;;;25.72;46.02;100949.81;1731930;80;21043;-42
2021/08/22 05:14:02;;;;;;;12.82;9.53;;;;;;;25.72;46.05;100947.02;1730016;80;21443;-41
2021/08/22 05:16:29;;;;;;;11.68;9.43;;;;;;;25.73;46.06;100952.83;1733632;81;21074;-43
2021/08/22 05:18:55;;;;;;;11.80;8.75;;;;;;;25.72;46.07;100954.80;1723928;80;21043;-43
2021/08/22 05:21:21;;;;;;;11.35;9.20;;;;;;;25.72;46.07;100956.20;1733439;81;21638;-42
2021/08/22 05:23:48;;;;;;;11.00;9.63;;;;;;;25.73;46.08;100955.05;1735322;80;20940;-43
2021/08/22 05:26:14;;;;;;;11.78;9.68;;;;;;;25.72;46.09;100959.56;1730632;80;21088;-41
2021/08/22 05:28:40;;;;;;;11.15;9.38;;;;;;;25.72;46.13;100961.77;1727640;80;21010;-41
2021/08/22 05:31:06;;;;;;;10.65;8.55;;;;;;;25.73;46.12;100961.20;1725872;80;21055;-42
2021/08/22 05:33:33;;;;;;;11.48;9.25;;;;;;;25.73;46.14;100960.62;1736297;81;21038;-42
2021/08/22 05:36:17;;;;;;;11.53;9.33;;;;;;;25.73;46.18;100963.98;1735639;80;20973;-42
2021/08/22 05:38:44;;;;;;;10.75;8.78;;;;;;;25.73;46.18;100965.38;1730786;82;21065;-43
2021/08/22 05:41:10;;;;;;;10.78;9.13;;;;;;;25.72;46.19;100961.77;1730409;81;20975;-43
2021/08/22 05:43:36;;;;;;;11.35;8.93;;;;;;;25.72;46.19;100963.74;1734597;80;20996;-42
2021/08/22 05:46:02;;;;;;;10.65;8.98;;;;;;;25.73;46.20;100965.38;1730519;80;21558;-42
2021/08/22 05:48:28;;;;;;;12.15;9.20;;;;;;;25.73;46.21;100968.16;1731258;80;21022;-43
2021/08/22 05:50:54;;;;;;;11.33;9.40;;;;;;;25.73;46.25;100968.98;1737895;80;21264;-44
2021/08/22 05:53:20;;;;;;;11.78;9.30;;;;;;;25.73;46.25;100978.73;1730832;81;21059;-42
2021/08/22 05:55:46;;;;;;;10.25;8.68;;;;;;;25.73;46.26;100975.13;1729726;80;20929;-42
2021/08/22 05:58:12;;;;;;;10.58;8.68;;;;;;;25.74;46.29;100979.55;1735467;80;21109;-42
2021/08/22 06:00:40;;;;;;;11.22;9.00;;;;;;;25.74;46.30;100989.30;1729961;82;21608;-41
2021/08/22 06:03:08;;;;;;;10.78;8.90;;;;;;;25.74;46.30;100974.80;1726579;81;21318;-42
2021/08/22 06:05:35;;;;;;;9.95;8.75;;;;;;;25.75;46.31;100983.97;1728165;82;21057;-43
2021/08/22 06:08:01;;;;;;;9.90;8.83;;;;;;;25.75;46.31;100987.58;1709682;83;21067;-42
2021/08/22 06:10:27;;;;;;;10.88;8.80;;;;;;;25.76;46.31;100991.14;1728889;80;20994;-42
2021/08/22 06:12:53;;;;;;;13.03;8.80;;;;;;;25.76;46.31;100988.36;1733173;81;21058;-41
2021/08/22 06:15:20;;;;;;;11.78;9.40;;;;;;;25.77;46.35;100980.23;1733303;80;22512;-43
2021/08/22 06:17:46;;;;;;;10.13;8.55;;;;;;;25.77;46.34;100989.41;1729360;80;22322;-41
2021/08/22 06:20:13;;;;;;;10.90;8.63;;;;;;;25.78;46.36;100991.05;1722706;81;21024;-43
2021/08/22 06:22:39;;;;;;;9.98;8.23;;;;;;;25.78;46.37;100993.02;1727205;80;21057;-42
2021/08/22 06:25:07;;;;;;;14.28;8.25;;;;;;;25.79;46.38;100994.66;1726993;80;21447;-42
2021/08/22 06:27:33;;;;;;;9.80;8.23;;;;;;;25.79;46.40;100998.83;1734796;80;21093;-42
2021/08/22 06:30:00;;;;;;;10.75;8.83;;;;;;;25.81;46.41;100993.70;1741323;80;21638;-42
2021/08/22 06:32:27;;;;;;;13.22;8.78;;;;;;;25.81;46.43;100997.31;1748684;81;21176;-41
2021/08/22 06:34:53;;;;;;;9.08;7.75;;;;;;;25.82;46.42;101000.91;1744617;80;21913;-42
2021/08/22 06:37:19;;;;;;;9.98;8.15;;;;;;;25.83;46.45;100996.97;1734125;81;21036;-43
2021/08/22 06:39:48;;;;;;;12.58;9.05;;;;;;;25.83;46.45;100992.79;1708987;82;21167;-42
2021/08/22 06:42:13;;;;;;;14.13;9.20;;;;;;;25.84;46.43;100989.63;1740805;81;21124;-42
2021/08/22 06:44:39;;;;;;;15.58;9.65;;;;;;;25.84;46.45;100991.03;1735393;81;21427;-44
2021/08/22 06:47:10;;;;;;;14.73;9.28;;;;;;;25.86;46.43;100994.30;1712729;83;21114;-42
2021/08/22 06:49:37;;;;;;;13.22;9.20;;;;;;;25.86;46.44;100994.30;1746052;80;21127;-43
2021/08/22 06:52:07;;;;;;;12.10;9.35;;;;;;;25.87;46.46;100995.92;1737030;81;21285;-42
2021/08/22 06:54:33;;;;;;;10.65;8.33;;;;;;;25.87;46.46;101002.89;1731874;81;21172;-42
2021/08/22 06:56:59;;;;;;;12.00;8.70;;;;;;;25.88;46.47;101003.14;1739986;81;21031;-42
2021/08/22 06:59:25;;;;;;;12.00;8.90;;;;;;;25.89;46.46;100999.16;1738673;81;20864;-42
2021/08/22 07:01:52;;;;;;;10.60;8.68;;;;;;;25.89;46.47;100996.95;1739556;81;21561;-42
2021/08/22 07:04:18;;;;;;;12.37;8.75;;;;;;;25.90;46.49;101003.58;1740341;81;22059;-41
2021/08/22 07:06:44;;;;;;;9.48;7.55;;;;;;;25.90;46.50;101004.98;1741715;81;21019;-42
2021/08/22 07:09:10;;;;;;;11.35;8.13;;;;;;;25.90;46.50;101003.58;1748606;80;20994;-45
2021/08/22 07:11:36;;;;;;;15.35;9.25;;;;;;;25.91;46.50;101006.61;1732023;80;20927;-41
2021/08/22 07:14:02;;;;;;;9.93;8.25;;;;;;;25.91;46.50;101009.40;1712343;82;21490;-42
2021/08/22 07:16:28;;;;;;;11.35;9.08;;;;;;;25.93;46.54;101008.24;1742187;81;22025;-42
2021/08/22 07:18:55;;;;;;;21.87;10.10;;;;;;;25.94;46.52;101012.05;1710834;82;21079;-42
2021/08/22 07:21:21;;;;;;;16.85;10.05;;;;;;;25.95;46.53;101010.09;1742620;80;21325;-42
2021/08/22 07:23:47;;;;;;;11.08;8.33;;;;;;;25.95;46.54;101019.27;1742107;81;21082;-42
2021/08/22 07:26:13;;;;;;;19.30;10.70;;;;;;;25.96;46.53;101022.30;1735854;80;21714;-41
2021/08/22 07:28:40;;;;;;;31.05;12.23;;;;;;;25.96;46.53;101022.30;1705790;81;21235;-43
2021/08/22 07:31:07;;;;;;;11.43;8.48;;;;;;;25.98;46.55;101024.13;1702096;83;21027;-41
2021/08/22 07:33:34;;;;;;;11.48;8.25;;;;;;;25.99;46.56;101015.19;1697434;83;20939;-40
2021/08/22 07:36:02;;;;;;;11.90;8.85;;;;;;;26.00;46.58;101025.19;1692940;83;21091;-42
2021/08/22 07:38:28;;;;;;;25.43;10.82;;;;;;;26.02;46.68;101024.24;1642111;86;21098;-43
2021/08/22 07:40:55;;;;;;;128.65;39.50;;;;;;;26.03;46.80;101020.30;1688206;83;22066;-45
2021/08/22 07:43:21;;;;;;;197.93;57.50;;;;;;;26.04;46.80;101023.33;1684218;83;21051;-44
2021/08/22 07:45:47;;;;;;;77.75;23.42;;;;;;;26.05;46.78;101021.59;1691059;83;21155;-42
2021/08/22 07:48:13;;;;;;;33.28;14.55;;;;;;;26.07;46.79;101025.41;1688294;83;21119;-42
2021/08/22 07:50:39;;;;;;;27.50;11.10;;;;;;;26.07;46.78;101024.83;1694771;83;21073;-45
2021/08/22 07:53:05;;;;;;;53.65;18.67;;;;;;;26.10;46.77;101026.09;1685987;83;21194;-43
2021/08/22 07:55:31;;;;;;;24.75;11.57;;;;;;;26.11;46.80;101023.55;1689625;83;21920;-43
2021/08/22 07:57:57;;;;;;;14.00;8.80;;;;;;;26.12;46.81;101023.78;1690538;83;21106;-43
2021/08/22 08:00:23;;;;;;;36.35;15.70;;;;;;;26.13;46.82;101022.05;1683596;83;21476;-42
2021/08/22 08:02:49;;;;;;;260.65;64.82;;;;;;;26.14;46.83;101027.05;1681823;83;21091;-42
2021/08/22 08:05:15;;;;;;;66.15;22.37;;;;;;;26.15;46.86;101025.29;1691671;83;21695;-41
2021/08/22 08:07:41;;;;;;;112.75;30.10;;;;;;;26.16;46.87;101024.13;1686177;83;21673;-41
2021/08/22 08:10:10;;;;;;;136.97;34.25;;;;;;;26.18;46.90;101029.37;1666000;84;21025;-42
2021/08/22 08:12:36;;;;;;;57.33;18.30;;;;;;;26.18;46.93;101027.36;1698485;83;21145;-42
2021/08/22 08:15:03;;;;;;;45.28;15.45;;;;;;;26.20;46.95;101026.48;1702967;83;20919;-43
2021/08/22 08:17:29;;;;;;;12.18;8.38;;;;;;;26.21;46.96;101025.90;1698544;83;21074;-43
2021/08/22 08:19:55;;;;;;;10.60;8.53;;;;;;;26.22;46.99;101025.56;1696691;83;21083;-42
2021/08/22 08:22:23;;;;;;;15.03;8.93;;;;;;;26.23;47.00;101028.56;1703407;83;21109;-42
2021/08/22 08:24:49;;;;;;;97.22;32.08;;;;;;;26.24;47.04;101027.41;1697121;83;21164;-44
2021/08/22 08:27:15;;;;;;;110.65;33.30;;;;;;;26.25;47.05;101022.06;1713318;81;21065;-43
2021/08/22 08:29:41;;;;;;;48.00;15.48;;;;;;;26.27;47.06;101022.51;1730027;80;21349;-43
2021/08/22 08:32:08;;;;;;;68.90;19.02;;;;;;;26.28;47.08;101019.95;1727408;82;21458;-42
2021/08/22 08:34:34;;;;;;;88.75;24.75;;;;;;;26.28;47.07;101021.93;1727245;80;21084;-43
2021/08/22 08:37:00;;;;;;;101.25;29.60;;;;;;;26.29;47.10;101023.56;1728138;80;21013;-41
2021/08/22 08:39:26;;;;;;;15.32;9.58;;;;;;;26.30;47.10;101019.62;1733409;81;20974;-42
2021/08/22 08:41:52;;;;;;;9.58;7.87;;;;;;;26.31;47.11;101017.85;1734484;81;21125;-43
2021/08/22 08:44:18;;;;;;;10.08;8.05;;;;;;;26.31;47.11;101022.61;1735797;81;21663;-41
2021/08/22 08:46:51;;;;;;;9.38;7.90;;;;;;;26.32;47.11;101023.67;1735557;80;21002;-43
2021/08/22 08:49:35;;;;;;;10.32;7.72;;;;;;;26.33;47.10;101021.70;1737395;81;21672;-41
2021/08/22 08:52:37;;;;;;;8.88;7.10;;;;;;;26.33;47.08;101019.72;1731178;80;21057;-41
2021/08/22 08:55:20;;;;;;;9.20;8.03;;;;;;;26.33;47.08;101016.94;1672893;83;21178;-42
2021/08/22 08:57:46;;;;;;;10.63;7.47;;;;;;;26.34;47.03;101016.36;1731415;81;21025;-43
2021/08/22 09:00:20;;;;;;;313.35;100.07;;;;;;;26.33;47.06;101023.09;1728274;82;21044;-43
2021/08/22 09:02:46;;;;;;;43.95;19.55;;;;;;;26.33;47.09;101015.54;1718702;80;21865;-41
2021/08/22 09:05:48;;;;;;;35.75;19.02;;;;;;;26.32;46.92;101018.09;1725411;80;21598;-42
2021/08/22 09:08:36;;;;;;;25.60;16.20;;;;;;;26.27;46.54;101012.75;1728660;80;21426;-45
2021/08/22 09:11:42;;;;;;;46.77;21.20;;;;;;;26.19;46.19;101014.23;1733447;81;21007;-43
2021/08/22 09:14:46;;;;;;;30.05;18.20;;;;;;;26.11;45.93;101009.02;1722851;81;21565;-41
2021/08/22 09:17:58;;;;;;;24.77;17.00;;;;;;;26.03;45.72;101008.57;1732874;80;21062;-42
2021/08/22 09:21:05;;;;;;;122.72;40.67;;;;;;;25.97;45.55;101009.95;1727551;81;21033;-43
2021/08/22 09:24:25;;;;;;;26.42;18.40;;;;;;;25.91;45.43;101007.19;1732489;80;21331;-42
2021/08/22 09:27:31;;;;;;;24.52;16.70;;;;;;;25.83;45.28;101003.36;1733599;80;21039;-43
2021/08/22 09:30:38;;;;;;;24.25;16.12;;;;;;;25.78;45.16;101005.56;1732313;80;21520;-42
2021/08/22 09:34:00;;;;;;;26.95;17.55;;;;;;;25.70;44.97;100996.16;1728286;81;21857;-44
2021/08/22 09:37:10;;;;;;;22.87;15.30;;;;;;;25.65;44.80;100998.35;1734256;81;21035;-42
2021/08/22 09:40:19;;;;;;;25.43;16.52;;;;;;;25.58;44.64;100996.73;1731914;80;21146;-41
2021/08/22 09:43:43;;;;;;;46.02;22.75;;;;;;;25.53;44.52;100997.77;1717393;81;21072;-42
2021/08/22 09:47:06;;;;;;;75.78;31.05;;;;;;;25.46;44.37;100996.90;1625647;86;21575;-43
2021/08/22 09:50:06;;;;;;;71.10;28.38;;;;;;;25.41;44.20;101005.50;1586399;88;21535;-42
2021/08/22 09:53:21;;;;;;;33.33;18.42;;;;;;;25.36;44.04;101004.33;1697777;81;21054;-43
2021/08/22 09:56:05;;;;;;;27.22;17.62;;;;;;;25.32;43.86;101003.39;1698623;82;22223;-42
2021/08/22 09:59:06;;;;;;;20.88;15.60;;;;;;;25.29;43.72;101000.48;1731312;80;21054;-42
2021/08/22 10:01:58;;;;;;;;;;;;;;;25.25;43.61;100998.95;1737118;81;21171;-41
2021/08/22 10:04:50;;;;;;;61.20;27.73;;;;;;;25.21;43.53;100998.59;1713206;81;20182;-42
2021/08/22 10:07:28;;;;;;;33.20;18.92;;;;;;;25.17;43.54;100992.90;1734418;80;21097;-42
2021/08/22 10:10:35;;;;;;;24.35;16.73;;;;;;;25.15;43.45;100992.45;1728922;80;21795;-43
2021/08/22 10:13:01;;;;;;;24.40;15.38;;;;;;;25.13;43.32;100994.75;1735695;80;21019;-41
2021/08/22 10:15:27;;;;;;;23.22;15.58;;;;;;;25.11;43.21;100990.69;1729010;80;21430;-41
2021/08/22 10:17:53;;;;;;;19.48;14.40;;;;;;;25.10;43.10;100983.48;1735695;80;21788;-43
2021/08/22 10:20:19;;;;;;;23.47;14.80;;;;;;;25.09;42.97;100988.23;1735638;81;21043;-42
2021/08/22 10:22:55;;;;;;;111.62;41.58;;;;;;;25.08;42.84;100985.22;1726167;80;21188;-43
2021/08/22 10:25:20;;;;;;;81.30;34.50;;;;;;;25.07;42.70;100985.00;1724968;81;21085;-42
2021/08/22 10:27:49;;;;;;;44.42;21.93;;;;;;;25.06;42.54;100981.16;1730086;81;21040;-41
2021/08/22 10:30:27;;;;;;;25.97;15.80;;;;;;;25.05;42.39;100981.73;1729874;82;21019;-42
2021/08/22 10:33:08;;;;;;;25.30;15.08;;;;;;;25.05;42.26;100974.77;1734244;80;21081;-42
2021/08/22 10:35:34;;;;;;;18.62;13.93;;;;;;;25.04;42.09;100982.09;1736052;82;21264;-45
2021/08/22 10:38:26;;;;;;;20.62;13.95;;;;;;;25.03;41.92;100975.71;1736179;80;21203;-44
2021/08/22 10:40:54;;;;;;;17.32;12.43;;;;;;;25.02;41.79;100978.25;1727993;80;21039;-43
2021/08/22 10:43:31;;;;;;;19.20;13.10;;;;;;;25.00;41.64;100977.77;1734729;80;21093;-42
2021/08/22 10:45:56;;;;;;;15.35;11.30;;;;;;;24.98;41.47;100972.56;1731498;80;21035;-43
2021/08/22 10:48:29;;;;;;;15.68;12.37;;;;;;;24.97;41.36;100973.71;1738610;80;21570;-42
2021/08/22 10:51:07;;;;;;;16.17;11.55;;;;;;;24.97;41.20;100972.32;1734430;80;21526;-43
2021/08/22 10:53:34;;;;;;;17.10;11.55;;;;;;;24.96;41.08;100971.27;1733199;80;21177;-42
2021/08/22 10:56:24;;;;;;;17.80;11.40;;;;;;;24.94;40.95;100968.84;1731027;81;21045;-42
2021/08/22 10:59:02;;;;;;;169.90;54.98;;;;;;;24.93;40.81;100972.77;1735313;80;21055;-43
2021/08/22 11:01:37;;;;;;;148.53;43.05;;;;;;;24.92;40.70;100966.15;1728179;81;22041;-43
2021/08/22 11:04:09;;;;;;;26.70;13.70;;;;;;;24.90;40.59;100963.73;1734118;82;21079;-44
2021/08/22 11:06:40;;;;;;;19.85;12.50;;;;;;;24.89;40.46;100962.67;1728804;81;21112;-43
2021/08/22 11:09:07;;;;;;;33.35;17.02;;;;;;;24.86;40.36;100960.00;1729458;82;21006;-44
2021/08/22 11:11:33;;;;;;;25.23;13.18;;;;;;;24.86;40.26;100957.22;1695594;82;21059;-42
2021/08/22 11:14:00;;;;;;;65.62;23.55;;;;;;;24.87;40.14;100949.66;1731603;80;20987;-42
2021/08/22 11:16:41;;;;;;;30.57;15.65;;;;;;;24.85;40.06;100954.20;1732182;80;21656;-42
2021/08/22 11:19:07;;;;;;;74.55;26.10;;;;;;;24.85;39.95;100957.52;1730849;80;21056;-40
2021/08/22 11:21:34;;;;;;;78.78;28.20;;;;;;;24.83;39.87;100956.46;1720047;81;38006;-43
2021/08/22 11:24:01;;;;;;;27.42;13.43;;;;;;;24.83;39.79;100947.30;1723865;80;21382;-45
2021/08/22 11:26:29;;;;;;;15.90;10.75;;;;;;;24.82;39.70;100944.30;1731921;80;21083;-41
2021/08/22 11:28:57;;;;;;;19.40;11.20;;;;;;;24.81;39.63;100939.31;1733752;80;21079;-41